createdAt,value
2019-05-22T00:01:41.185Z,99.90
2019-05-22T00:04:31.611Z,99.90
2019-05-22T00:07:06.119Z,99.90
2019-05-22T00:09:39.938Z,99.90
2019-05-22T00:12:17.945Z,99.90
2019-05-22T00:14:54.336Z,99.90
2019-05-22T00:17:32.499Z,99.90
2019-05-22T00:20:06.420Z,99.90
2019-05-22T00:22:39.375Z,99.90
2019-05-22T00:25:18.289Z,99.90
2019-05-22T00:27:54.233Z,99.90
2019-05-22T00:30:27.321Z,99.90
2019-05-22T00:33:00.947Z,99.90
2019-05-22T00:35:32.094Z,99.90
2019-05-22T00:38:05.709Z,99.90
2019-05-22T00:40:44.614Z,99.90
2019-05-22T00:43:18.739Z,99.90
2019-05-22T00:45:52.335Z,99.90
2019-05-22T00:48:25.841Z,99.90
2019-05-22T00:51:19.505Z,99.90
2019-05-22T00:54:00.998Z,99.90
2019-05-22T00:56:49.811Z,99.90
2019-05-22T00:59:32.037Z,99.90
2019-05-22T01:02:07.934Z,99.90
2019-05-22T01:04:41.371Z,99.90
2019-05-22T01:07:18.815Z,99.90
2019-05-22T01:09:52.351Z,99.90
2019-05-22T01:12:29.286Z,99.90
2019-05-22T01:15:06.680Z,99.90
2019-05-22T01:17:38.231Z,99.90
2019-05-22T01:20:15.104Z,99.90
2019-05-22T01:22:49.751Z,99.90
2019-05-22T01:25:24.787Z,99.90
2019-05-22T01:27:58.019Z,99.90
2019-05-22T01:30:48.692Z,99.90
2019-05-22T01:33:23.502Z,99.90
2019-05-22T01:36:13.889Z,99.90
2019-05-22T01:39:21.431Z,99.90
2019-05-22T01:41:56.735Z,99.90
2019-05-22T01:44:30.164Z,99.90
2019-05-22T01:47:07.017Z,99.90
2019-05-22T01:49:44.377Z,99.90
2019-05-22T01:52:17.291Z,99.90
2019-05-22T01:54:50.409Z,99.90
2019-05-22T01:57:23.876Z,99.90
2019-05-22T01:59:55.666Z,99.90
2019-05-22T02:02:27.011Z,99.90
2019-05-22T02:04:59.579Z,99.90
2019-05-22T02:07:31.143Z,99.90
2019-05-22T02:10:03.832Z,99.90
2019-05-22T02:12:47.222Z,99.90
2019-05-22T02:15:19.142Z,99.90
2019-05-22T02:17:51.489Z,99.90
2019-05-22T02:20:24.915Z,99.90
2019-05-22T02:22:57.607Z,99.90
2019-05-22T02:25:30.447Z,99.90
2019-05-22T02:28:01.789Z,99.90
2019-05-22T02:30:33.838Z,99.90
2019-05-22T02:33:07.749Z,99.90
2019-05-22T02:35:39.758Z,99.90
2019-05-22T02:38:12.439Z,99.90
2019-05-22T02:40:47.159Z,99.90
2019-05-22T02:43:18.732Z,99.90
2019-05-22T02:45:50.440Z,99.90
2019-05-22T02:48:26.097Z,99.90
2019-05-22T02:50:57.878Z,99.90
2019-05-22T02:53:29.918Z,99.90
2019-05-22T02:56:01.030Z,99.90
2019-05-22T02:58:34.680Z,99.90
2019-05-22T03:01:06.286Z,99.90
2019-05-22T03:03:37.706Z,99.90
2019-05-22T03:06:13.766Z,99.90
2019-05-22T03:09:29.616Z,99.90
2019-05-22T03:12:06.506Z,99.90
2019-05-22T03:14:40.724Z,99.90
2019-05-22T03:17:30.308Z,99.90
2019-05-22T03:20:04.729Z,99.90
2019-05-22T03:22:42.305Z,99.90
2019-05-22T03:25:17.634Z,99.90
2019-05-22T03:27:52.474Z,99.90
2019-05-22T03:30:27.759Z,99.90
2019-05-22T03:33:01.081Z,99.90
2019-05-22T03:35:39.142Z,99.90
2019-05-22T03:38:12.280Z,99.90
2019-05-22T03:40:44.914Z,99.90
2019-05-22T03:43:24.644Z,99.90
2019-05-22T03:45:59.189Z,99.90
2019-05-22T03:48:35.627Z,99.90
2019-05-22T03:51:13.782Z,99.90
2019-05-22T03:53:46.569Z,99.90
2019-05-22T03:56:19.908Z,99.90
2019-05-22T03:58:51.808Z,99.90
2019-05-22T04:01:23.776Z,99.90
2019-05-22T04:03:55.629Z,99.90
2019-05-22T04:06:26.980Z,99.90
2019-05-22T04:09:01.093Z,99.90
2019-05-22T04:11:38.826Z,99.90
2019-05-22T04:14:10.046Z,99.90
2019-05-22T04:16:41.779Z,99.90
2019-05-22T04:19:15.392Z,99.90
2019-05-22T04:21:47.539Z,99.90
2019-05-22T04:24:19.625Z,99.90
2019-05-22T04:26:51.404Z,99.90
2019-05-22T04:29:23.939Z,99.90
2019-05-22T04:32:00.355Z,99.90
2019-05-22T04:34:32.728Z,99.90
2019-05-22T04:37:05.565Z,99.90
2019-05-22T04:39:38.918Z,99.90
2019-05-22T04:42:12.007Z,99.90
2019-05-22T04:45:05.486Z,99.90
2019-05-22T04:47:58.763Z,99.90
2019-05-22T04:50:31.198Z,99.90
2019-05-22T04:53:03.703Z,99.90
2019-05-22T04:55:35.144Z,99.90
2019-05-22T04:58:10.812Z,99.90
2019-05-22T05:00:42.094Z,99.90
2019-05-22T05:03:14.803Z,99.90
2019-05-22T05:05:49.818Z,99.90
2019-05-22T05:08:22.098Z,99.90
2019-05-22T05:10:55.901Z,99.90
2019-05-22T05:13:27.387Z,99.90
2019-05-22T05:15:58.899Z,99.90
2019-05-22T05:18:30.565Z,99.90
2019-05-22T05:21:13.425Z,99.90
2019-05-22T05:23:44.873Z,99.90
2019-05-22T05:26:16.943Z,99.90
2019-05-22T05:28:48.794Z,99.90
2019-05-22T05:31:20.788Z,99.90
2019-05-22T05:34:24.258Z,99.90
2019-05-22T05:36:57.293Z,99.90
2019-05-22T05:40:06.167Z,99.90
2019-05-22T05:42:38.115Z,99.90
2019-05-22T05:45:13.595Z,99.90
2019-05-22T05:47:46.036Z,99.90
2019-05-22T05:50:18.321Z,99.90
2019-05-22T05:52:51.534Z,99.90
2019-05-22T05:55:25.423Z,99.90
2019-05-22T05:58:27.845Z,99.90
2019-05-22T06:01:09.911Z,99.90
2019-05-22T06:03:42.295Z,99.90
2019-05-22T06:06:53.973Z,99.90
2019-05-22T06:09:27.155Z,99.90
2019-05-22T06:11:59.510Z,99.90
2019-05-22T06:14:32.433Z,99.90
2019-05-22T06:17:16.671Z,99.90
2019-05-22T06:19:50.098Z,99.90
2019-05-22T06:22:23.210Z,99.90
2019-05-22T06:24:59.721Z,99.90
2019-05-22T06:27:44.807Z,99.90
2019-05-22T06:30:19.136Z,99.90
2019-05-22T06:33:42.796Z,99.90
2019-05-22T06:36:17.644Z,99.90
2019-05-22T06:38:59.946Z,99.90
2019-05-22T06:41:35.139Z,99.90
2019-05-22T06:44:41.184Z,99.90
2019-05-22T06:47:17.717Z,99.90
2019-05-22T06:49:53.065Z,99.90
2019-05-22T06:52:25.152Z,99.90
2019-05-22T06:54:58.599Z,99.90
2019-05-22T06:57:34.458Z,99.90
2019-05-22T07:00:31.233Z,99.90
2019-05-22T07:03:03.191Z,99.90
2019-05-22T07:05:35.011Z,99.90
2019-05-22T07:08:08.813Z,99.90
2019-05-22T07:10:41.789Z,99.90
2019-05-22T07:13:14.196Z,99.90
2019-05-22T07:15:48.681Z,99.90
2019-05-22T07:18:22.711Z,99.90
2019-05-22T07:20:57.110Z,99.90
2019-05-22T07:23:40.086Z,99.90
2019-05-22T07:26:12.479Z,99.90
2019-05-22T07:28:44.147Z,99.90
2019-05-22T07:31:15.759Z,99.90
2019-05-22T07:33:49.810Z,99.90
2019-05-22T07:36:23.933Z,99.90
2019-05-22T07:38:54.991Z,99.90
2019-05-22T07:41:26.981Z,99.90
2019-05-22T07:43:58.409Z,99.90
2019-05-22T07:46:31.032Z,99.90
2019-05-22T07:49:02.871Z,99.90
2019-05-22T07:51:51.471Z,99.90
2019-05-22T07:54:08.102Z,99.90
2019-05-22T07:56:40.482Z,99.90
2019-05-22T07:59:12.255Z,99.90
2019-05-22T08:01:44.461Z,99.90
2019-05-22T08:04:17.050Z,99.90
2019-05-22T08:06:48.929Z,99.90
2019-05-22T08:09:22.975Z,99.90
2019-05-22T08:11:54.997Z,99.90
2019-05-22T08:14:28.968Z,99.90
2019-05-22T08:17:01.525Z,99.90
2019-05-22T08:19:33.480Z,99.90
2019-05-22T08:22:07.730Z,99.90
2019-05-22T08:24:39.447Z,99.90
2019-05-22T08:27:11.599Z,99.90
2019-05-22T08:29:43.829Z,99.90
2019-05-22T08:32:15.234Z,99.90
2019-05-22T08:34:46.981Z,99.90
2019-05-22T08:37:20.681Z,99.90
2019-05-22T08:39:54.925Z,99.90
2019-05-22T08:42:27.984Z,99.90
2019-05-22T08:44:59.635Z,99.90
2019-05-22T08:47:31.001Z,99.90
2019-05-22T08:50:02.556Z,99.90
2019-05-22T08:52:35.008Z,99.90
2019-05-22T08:55:06.911Z,99.90
2019-05-22T08:57:39.775Z,99.90
2019-05-22T09:00:14.643Z,99.90
2019-05-22T09:02:46.322Z,99.90
2019-05-22T09:05:21.282Z,99.90
2019-05-22T09:07:50.591Z,99.90
2019-05-22T09:10:26.014Z,99.90
2019-05-22T09:12:56.063Z,99.90
2019-05-22T09:15:28.678Z,99.90
2019-05-22T09:18:00.307Z,99.90
2019-05-22T09:20:48.122Z,99.90
2019-05-22T09:23:05.766Z,99.90
2019-05-22T09:25:37.378Z,99.90
2019-05-22T09:28:09.304Z,99.90
2019-05-22T09:30:40.377Z,99.90
2019-05-22T09:33:12.842Z,99.90
2019-05-22T09:35:44.145Z,99.90
2019-05-22T09:38:15.698Z,99.90
2019-05-22T09:40:48.172Z,99.90
2019-05-22T09:43:20.679Z,99.90
2019-05-22T09:45:52.297Z,99.90
2019-05-22T09:48:24.290Z,99.90
2019-05-22T09:50:56.195Z,99.90
2019-05-22T09:53:27.896Z,99.90
2019-05-22T09:55:59.231Z,99.90
2019-05-22T09:58:30.933Z,99.90
2019-05-22T10:01:02.463Z,99.90
2019-05-22T10:03:34.391Z,99.90
2019-05-22T10:06:07.362Z,99.90
2019-05-22T10:08:39.593Z,99.90
2019-05-22T10:11:10.972Z,99.90
2019-05-22T10:13:44.080Z,99.90
2019-05-22T10:16:15.869Z,99.90
2019-05-22T10:18:47.542Z,99.90
2019-05-22T10:21:19.054Z,99.90
2019-05-22T10:23:51.072Z,99.90
2019-05-22T10:26:23.097Z,99.90
2019-05-22T10:28:56.112Z,99.90
2019-05-22T10:31:27.972Z,99.90
2019-05-22T10:34:00.451Z,99.90
2019-05-22T10:36:31.785Z,99.90
2019-05-22T10:39:06.490Z,99.90
2019-05-22T10:41:38.356Z,99.90
2019-05-22T10:44:10.047Z,99.90
2019-05-22T10:46:41.076Z,99.90
2019-05-22T10:49:12.336Z,99.90
2019-05-22T10:51:43.460Z,99.90
2019-05-22T10:54:14.932Z,99.90
2019-05-22T10:56:46.698Z,99.90
2019-05-22T10:59:18.044Z,99.90
2019-05-22T11:01:49.162Z,99.90
2019-05-22T11:04:22.234Z,99.90
2019-05-22T11:06:57.123Z,99.90
2019-05-22T11:09:29.079Z,99.90
2019-05-22T11:12:19.426Z,99.90
2019-05-22T11:14:53.894Z,99.90
2019-05-22T11:17:25.009Z,99.90
2019-05-22T11:19:56.499Z,99.90
2019-05-22T11:22:28.566Z,99.90
2019-05-22T11:25:00.021Z,99.90
2019-05-22T11:27:31.480Z,99.90
2019-05-22T11:30:02.790Z,99.90
2019-05-22T11:32:35.626Z,99.90
2019-05-22T11:35:09.252Z,99.90
2019-05-22T11:37:41.877Z,99.90
2019-05-22T11:40:14.881Z,99.90
2019-05-22T11:42:46.486Z,99.90
2019-05-22T11:45:18.392Z,99.90
2019-05-22T11:47:57.051Z,99.90
2019-05-22T11:50:30.220Z,99.90
2019-05-22T11:53:01.391Z,99.90
2019-05-22T11:55:43.769Z,99.90
2019-05-22T11:58:07.356Z,99.90
2019-05-22T12:00:50.211Z,99.90
2019-05-22T12:03:23.144Z,99.90
2019-05-22T12:05:55.888Z,99.90
2019-05-22T12:08:27.324Z,99.90
2019-05-22T12:10:59.451Z,99.90
2019-05-22T12:13:32.641Z,99.90
2019-05-22T12:16:05.905Z,99.90
2019-05-22T12:18:37.387Z,99.90
2019-05-22T12:21:09.114Z,99.90
2019-05-22T12:23:40.370Z,99.90
2019-05-22T12:26:13.302Z,99.90
2019-05-22T12:28:44.521Z,99.90
2019-05-22T12:31:16.588Z,99.90
2019-05-22T12:33:48.222Z,99.90
2019-05-22T12:36:19.982Z,99.90
2019-05-22T12:38:51.210Z,99.90
2019-05-22T12:41:23.645Z,99.90
2019-05-22T12:43:54.848Z,99.90
2019-05-22T12:46:27.533Z,99.90
2019-05-22T12:49:01.084Z,99.90
2019-05-22T12:51:34.027Z,99.90
2019-05-22T12:54:05.867Z,99.90
2019-05-22T12:56:56.902Z,99.90
2019-05-22T12:59:29.214Z,99.90
2019-05-22T13:02:01.442Z,99.90
2019-05-22T13:04:33.080Z,99.90
2019-05-22T13:07:05.016Z,99.90
2019-05-22T13:09:36.546Z,99.90
2019-05-22T13:12:10.458Z,99.90
2019-05-22T13:14:41.576Z,99.90
2019-05-22T13:17:15.240Z,99.90
2019-05-22T13:19:58.424Z,99.90
2019-05-22T13:22:33.941Z,99.30
2019-05-22T13:25:08.604Z,99.90
2019-05-22T13:27:41.770Z,99.90
2019-05-22T13:30:16.476Z,98.30
2019-05-22T13:32:49.265Z,98.90
2019-05-22T13:35:23.989Z,98.00
2019-05-22T13:37:58.145Z,99.60
2019-05-22T13:40:30.520Z,99.90
2019-05-22T13:43:04.296Z,99.10
2019-05-22T13:45:36.572Z,98.30
2019-05-22T13:48:08.638Z,98.50
2019-05-22T13:50:40.499Z,97.20
2019-05-22T13:53:14.203Z,96.20
2019-05-22T13:55:46.175Z,96.80
2019-05-22T13:58:20.631Z,96.40
2019-05-22T14:00:51.789Z,95.40
2019-05-22T14:03:23.820Z,95.00
2019-05-22T14:05:56.100Z,94.80
2019-05-22T14:08:39.677Z,95.30
2019-05-22T14:11:12.540Z,94.50
2019-05-22T14:13:44.248Z,97.20
2019-05-22T14:16:15.512Z,94.70
2019-05-22T14:19:06.215Z,94.90
2019-05-22T14:21:37.357Z,96.50
2019-05-22T14:24:09.238Z,96.50
2019-05-22T14:26:40.568Z,96.20
2019-05-22T14:29:12.076Z,93.90
2019-05-22T14:31:43.453Z,93.10
2019-05-22T14:34:15.122Z,95.00
2019-05-22T14:36:46.335Z,93.20
2019-05-22T14:39:17.932Z,93.60
2019-05-22T14:41:49.320Z,92.50
2019-05-22T14:44:21.962Z,92.10
2019-05-22T14:46:53.180Z,91.80
2019-05-22T14:49:24.644Z,93.40
2019-05-22T14:51:56.791Z,89.60
2019-05-22T14:54:28.571Z,90.20
2019-05-22T14:57:00.740Z,90.60
2019-05-22T14:59:32.806Z,88.60
2019-05-22T15:02:05.440Z,85.50
2019-05-22T15:04:36.956Z,84.30
2019-05-22T15:07:08.860Z,83.40
2019-05-22T15:09:40.262Z,89.90
2019-05-22T15:12:11.393Z,86.50
2019-05-22T15:15:02.021Z,88.20
2019-05-22T15:17:33.732Z,84.10
2019-05-22T15:20:06.334Z,86.00
2019-05-22T15:22:38.326Z,86.60
2019-05-22T15:25:10.372Z,87.50
2019-05-22T15:27:41.756Z,83.10
2019-05-22T15:30:14.195Z,83.90
2019-05-22T15:32:45.554Z,80.90
2019-05-22T15:35:17.246Z,83.10
2019-05-22T15:37:48.445Z,89.30
2019-05-22T15:40:20.318Z,85.90
2019-05-22T15:42:51.561Z,85.60
2019-05-22T15:45:25.786Z,86.30
2019-05-22T15:47:58.353Z,81.50
2019-05-22T15:50:34.117Z,83.60
2019-05-22T15:53:12.869Z,84.60
2019-05-22T15:55:44.285Z,80.20
2019-05-22T15:58:16.915Z,83.50
2019-05-22T16:00:50.358Z,81.30
2019-05-22T16:03:24.958Z,81.30
2019-05-22T16:05:57.162Z,83.40
2019-05-22T16:08:30.922Z,84.40
2019-05-22T16:11:21.980Z,81.20
2019-05-22T16:13:54.309Z,82.90
2019-05-22T16:16:27.768Z,78.60
2019-05-22T16:19:02.951Z,82.50
2019-05-22T16:21:36.542Z,81.30
2019-05-22T16:24:07.893Z,81.70
2019-05-22T16:26:39.426Z,78.90
2019-05-22T16:29:18.406Z,83.30
2019-05-22T16:31:52.024Z,83.10
2019-05-22T16:34:23.184Z,79.80
2019-05-22T16:36:55.858Z,73.90
2019-05-22T16:39:27.649Z,75.00
2019-05-22T16:41:59.694Z,75.00
2019-05-22T16:44:32.094Z,78.00
2019-05-22T16:47:04.544Z,79.00
2019-05-22T16:49:37.170Z,81.30
2019-05-22T16:52:11.657Z,80.30
2019-05-22T16:54:43.709Z,82.00
2019-05-22T16:57:15.671Z,83.80
2019-05-22T16:59:47.306Z,81.90
2019-05-22T17:02:19.016Z,84.50
2019-05-22T17:04:50.216Z,83.10
2019-05-22T17:07:21.568Z,85.60
2019-05-22T17:09:54.075Z,85.30
2019-05-22T17:12:25.904Z,85.70
2019-05-22T17:14:56.989Z,85.10
2019-05-22T17:17:28.320Z,83.70
2019-05-22T17:19:59.864Z,83.20
2019-05-22T17:22:31.212Z,83.30
2019-05-22T17:25:02.558Z,82.90
2019-05-22T17:27:40.158Z,83.80
2019-05-22T17:30:12.942Z,84.50
2019-05-22T17:32:45.331Z,83.00
2019-05-22T17:35:18.677Z,85.10
2019-05-22T17:37:50.084Z,83.30
2019-05-22T17:40:23.758Z,83.80
2019-05-22T17:42:55.739Z,83.70
2019-05-22T17:45:28.213Z,80.70
2019-05-22T17:47:59.648Z,76.00
2019-05-22T17:50:31.066Z,74.00
2019-05-22T17:53:04.093Z,73.90
2019-05-22T17:55:54.341Z,71.50
2019-05-22T17:58:29.898Z,69.60
2019-05-22T18:01:00.586Z,70.00
2019-05-22T18:03:32.866Z,72.90
2019-05-22T18:06:05.826Z,74.10
2019-05-22T18:08:37.477Z,76.70
2019-05-22T18:11:08.924Z,77.50
2019-05-22T18:14:02.176Z,81.30
2019-05-22T18:16:34.404Z,81.50
2019-05-22T18:19:07.173Z,84.90
2019-05-22T18:21:38.340Z,90.40
2019-05-22T18:24:09.861Z,88.20
2019-05-22T18:26:42.102Z,91.60
2019-05-22T18:29:32.522Z,92.90
2019-05-22T18:32:04.624Z,91.90
2019-05-22T18:34:35.799Z,91.30
2019-05-22T18:37:07.042Z,92.20
2019-05-22T18:39:38.406Z,94.50
2019-05-22T18:42:09.894Z,93.30
2019-05-22T18:44:41.237Z,93.00
2019-05-22T18:47:12.654Z,92.60
2019-05-22T18:49:44.273Z,95.20
2019-05-22T18:52:15.503Z,93.80
2019-05-22T18:54:47.067Z,97.60
2019-05-22T18:57:18.890Z,94.60
2019-05-22T18:59:50.239Z,97.90
2019-05-22T19:02:22.236Z,98.80
2019-05-22T19:04:53.505Z,96.40
2019-05-22T19:07:24.719Z,97.90
2019-05-22T19:09:56.046Z,99.90
2019-05-22T19:12:39.170Z,99.90
2019-05-22T19:15:10.719Z,99.90
2019-05-22T19:17:42.108Z,99.90
2019-05-22T19:20:14.480Z,99.90
2019-05-22T19:22:59.611Z,99.90
2019-05-22T19:25:20.575Z,99.90
2019-05-22T19:27:51.926Z,97.90
2019-05-22T19:30:24.269Z,97.10
2019-05-22T19:32:55.551Z,97.00
2019-05-22T19:35:26.883Z,97.40
2019-05-22T19:37:58.240Z,97.80
2019-05-22T19:40:29.821Z,98.00
2019-05-22T19:43:02.232Z,99.90
2019-05-22T19:45:34.836Z,99.60
2019-05-22T19:48:07.337Z,99.90
2019-05-22T19:50:39.108Z,99.70
2019-05-22T19:53:18.590Z,99.90
2019-05-22T19:55:47.174Z,97.20
2019-05-22T19:58:21.937Z,96.00
2019-05-22T20:00:52.780Z,97.50
2019-05-22T20:03:25.481Z,96.10
2019-05-22T20:05:57.543Z,98.90
2019-05-22T20:08:28.782Z,99.90
2019-05-22T20:11:00.296Z,99.90
2019-05-22T20:13:31.966Z,99.90
2019-05-22T20:16:10.374Z,99.90
2019-05-22T20:18:41.653Z,99.90
2019-05-22T20:21:12.977Z,99.90
2019-05-22T20:23:55.726Z,99.90
2019-05-22T20:26:27.554Z,99.90
2019-05-22T20:28:58.970Z,99.90
2019-05-22T20:31:30.259Z,99.90
2019-05-22T20:34:01.869Z,99.90
2019-05-22T20:36:35.191Z,99.90
2019-05-22T20:39:09.521Z,99.90
2019-05-22T20:41:41.565Z,99.90
2019-05-22T20:44:12.745Z,99.90
2019-05-22T20:46:46.330Z,99.90
2019-05-22T20:49:19.881Z,99.90
2019-05-22T20:51:52.699Z,99.90
2019-05-22T20:54:24.709Z,99.90
2019-05-22T20:56:57.135Z,99.90
2019-05-22T20:59:30.062Z,99.90
2019-05-22T21:02:01.692Z,99.90
2019-05-22T21:04:33.406Z,99.90
2019-05-22T21:07:07.150Z,99.90
2019-05-22T21:09:38.794Z,99.90
2019-05-22T21:12:12.827Z,99.90
2019-05-22T21:14:44.019Z,99.90
2019-05-22T21:17:16.137Z,99.90
2019-05-22T21:19:48.113Z,99.90
2019-05-22T21:22:23.570Z,99.90
2019-05-22T21:24:54.736Z,99.90
2019-05-22T21:27:26.508Z,99.90
2019-05-22T21:29:58.121Z,99.90
2019-05-22T21:32:29.657Z,99.90
2019-05-22T21:35:12.827Z,99.90
2019-05-22T21:37:44.240Z,99.90
2019-05-22T21:40:18.093Z,99.90
2019-05-22T21:42:50.119Z,99.90
2019-05-22T21:45:21.521Z,99.90
2019-05-22T21:47:53.637Z,99.90
2019-05-22T21:50:25.728Z,99.90
2019-05-22T21:52:57.257Z,99.90
2019-05-22T21:55:30.488Z,99.90
2019-05-22T21:58:02.335Z,99.90
2019-05-22T22:00:52.735Z,99.90
2019-05-22T22:03:27.657Z,99.90
2019-05-22T22:06:00.118Z,99.90
2019-05-22T22:08:32.084Z,99.90
2019-05-22T22:11:04.418Z,99.90
2019-05-22T22:13:37.966Z,99.90
2019-05-22T22:16:09.914Z,99.90
2019-05-22T22:18:50.171Z,99.90
2019-05-22T22:21:22.269Z,99.90
2019-05-22T22:23:54.210Z,99.90
2019-05-22T22:26:26.827Z,99.90
2019-05-22T22:28:58.434Z,99.90
2019-05-22T22:31:33.378Z,99.90
2019-05-22T22:34:15.252Z,99.90
2019-05-22T22:36:47.280Z,99.90
2019-05-22T22:39:21.660Z,99.90
2019-05-22T22:41:53.580Z,99.90
2019-05-22T22:44:25.793Z,99.90
2019-05-22T22:47:01.424Z,99.90
2019-05-22T22:49:35.076Z,99.90
2019-05-22T22:52:07.862Z,99.90
2019-05-22T22:54:39.891Z,99.90
2019-05-22T22:57:13.043Z,99.90
2019-05-22T22:59:44.742Z,99.90
2019-05-22T23:02:22.682Z,99.90
2019-05-22T23:05:13.987Z,99.90
2019-05-22T23:07:46.018Z,99.90
2019-05-22T23:10:19.650Z,99.90
2019-05-22T23:12:54.347Z,99.90
2019-05-22T23:15:26.808Z,99.90
2019-05-22T23:17:57.926Z,99.90
2019-05-22T23:20:29.427Z,99.90
2019-05-22T23:23:00.059Z,99.90
2019-05-22T23:25:32.544Z,99.90
2019-05-22T23:28:04.859Z,99.90
2019-05-22T23:30:37.707Z,99.90
2019-05-22T23:33:15.986Z,99.90
2019-05-22T23:35:48.353Z,99.90
2019-05-22T23:38:19.892Z,99.90
2019-05-22T23:40:51.288Z,99.90
2019-05-22T23:43:22.436Z,99.90
2019-05-22T23:45:55.035Z,99.90
2019-05-22T23:48:28.203Z,99.90
2019-05-22T23:51:00.108Z,99.90
2019-05-22T23:53:33.099Z,99.90
2019-05-22T23:56:05.133Z,99.90
2019-05-22T23:58:51.478Z,99.90
